Time;durP1;ratioP1;P1;durP2;ratioP2;P2;SDS_P1;SDS_P2;PMS_P1;PMS_P2;Temp;Humidity;BMP_temperature;BMP_pressure;BME280_temperature;BME280_humidity;BME280_pressure;Samples;Min_cycle;Max_cycle;Signal;HPM_P1;HPM_P2
2023/09/17 00:01:18;;;;;;;2.00;1.48;;;17.40;1.00;;;;;;5069331;28;20044;-72
2023/09/17 00:03:46;;;;;;;2.40;1.83;;;17.40;1.00;;;;;;5074896;28;20533;-73
2023/09/17 00:06:13;;;;;;;2.20;1.63;;;17.40;1.00;;;;;;5061319;28;20074;-72
2023/09/17 00:08:39;;;;;;;2.88;2.00;;;17.50;1.00;;;;;;5070886;28;20040;-73
2023/09/17 00:11:07;;;;;;;2.83;1.80;;;17.40;1.00;;;;;;5063074;28;20049;-73
2023/09/17 00:13:35;;;;;;;2.05;1.83;;;17.50;1.00;;;;;;5066336;28;20052;-73
2023/09/17 00:16:02;;;;;;;2.60;1.90;;;17.50;1.00;;;;;;5071710;28;20051;-72
2023/09/17 00:18:29;;;;;;;3.28;2.70;;;17.50;1.00;;;;;;5072808;28;20048;-74
2023/09/17 00:20:56;;;;;;;2.92;2.42;;;17.50;1.00;;;;;;5058369;28;20048;-72
2023/09/17 00:23:23;;;;;;;3.30;2.60;;;17.50;1.00;;;;;;5076869;28;20044;-71
2023/09/17 00:25:50;;;;;;;5.32;3.35;;;17.40;1.00;;;;;;5077426;28;20048;-72
2023/09/17 00:28:17;;;;;;;3.83;2.60;;;17.50;1.00;;;;;;5068223;28;20058;-71
2023/09/17 00:30:44;;;;;;;2.67;2.35;;;17.50;1.00;;;;;;5068808;28;20050;-71
2023/09/17 00:33:11;;;;;;;2.95;1.98;;;17.50;1.00;;;;;;5071144;28;20131;-71
2023/09/17 00:35:38;;;;;;;3.47;2.75;;;17.60;1.00;;;;;;5066238;28;20047;-71
2023/09/17 00:38:05;;;;;;;3.92;2.33;;;17.60;1.00;;;;;;5070939;28;20060;-71
2023/09/17 00:40:34;;;;;;;4.60;2.58;;;17.60;1.00;;;;;;5073707;28;20041;-71
2023/09/17 00:43:02;;;;;;;2.80;2.30;;;17.60;1.00;;;;;;5053317;28;20127;-71
2023/09/17 00:45:30;;;;;;;5.38;2.75;;;17.60;1.00;;;;;;5066515;28;20075;-71
2023/09/17 00:47:57;;;;;;;3.45;2.70;;;17.50;8.60;;;;;;5059421;28;20466;-71
2023/09/17 00:50:24;;;;;;;2.65;2.17;;;17.60;11.80;;;;;;5048319;28;20411;-72
2023/09/17 00:52:50;;;;;;;2.78;2.17;;;17.60;12.10;;;;;;5065102;28;20122;-71
2023/09/17 00:55:17;;;;;;;3.35;2.53;;;17.70;17.00;;;;;;5057877;28;20492;-71
2023/09/17 00:57:45;;;;;;;3.50;2.35;;;17.60;18.30;;;;;;5075658;28;20051;-71
2023/09/17 01:00:13;;;;;;;2.83;2.55;;;17.60;24.80;;;;;;5077903;28;20128;-71
2023/09/17 01:02:40;;;;;;;3.05;2.30;;;17.70;26.20;;;;;;5060243;28;20135;-71
2023/09/17 01:05:08;;;;;;;4.47;2.10;;;17.70;26.20;;;;;;5062789;28;20052;-72
2023/09/17 01:07:36;;;;;;;3.50;2.47;;;17.70;28.70;;;;;;5063018;28;20060;-72
2023/09/17 01:10:04;;;;;;;3.25;2.95;;;17.70;33.90;;;;;;5065054;28;20049;-71
2023/09/17 01:12:31;;;;;;;5.90;4.18;;;17.80;36.70;;;;;;5072261;28;20053;-71
2023/09/17 01:14:58;;;;;;;4.53;3.88;;;17.70;55.00;;;;;;5067634;28;20164;-71
2023/09/17 01:17:27;;;;;;;4.10;3.70;;;17.60;67.60;;;;;;5078302;28;20044;-72
2023/09/17 01:19:55;;;;;;;3.95;3.47;;;17.70;72.80;;;;;;5065707;28;20131;-72
2023/09/17 01:22:35;;;;;;;5.55;3.70;;;17.70;74.50;;;;;;5064780;28;20051;-71
2023/09/17 01:25:18;;;;;;;3.42;2.58;;;17.70;79.90;;;;;;5062344;28;20048;-71
2023/09/17 01:27:45;;;;;;;6.88;3.33;;;17.70;77.40;;;;;;5069592;28;20121;-72
2023/09/17 01:30:15;;;;;;;4.05;3.42;;;17.70;88.20;;;;;;5076180;28;20123;-72
2023/09/17 01:32:43;;;;;;;4.55;3.13;;;17.70;88.90;;;;;;5073839;28;20056;-72
2023/09/17 01:35:15;;;;;;;4.55;3.20;;;17.70;92.00;;;;;;5060362;28;20054;-72
2023/09/17 01:37:47;;;;;;;4.88;3.70;;;17.80;92.20;;;;;;5068631;28;20127;-71
2023/09/17 01:40:14;;;;;;;4.15;3.58;;;17.70;94.90;;;;;;5058061;28;20040;-71
2023/09/17 01:42:44;;;;;;;3.35;2.78;;;17.80;96.40;;;;;;5069359;28;20079;-72
2023/09/17 01:45:14;;;;;;;4.07;3.00;;;17.70;98.50;;;;;;5070112;28;20052;-74
2023/09/17 01:47:42;;;;;;;5.30;4.25;;;17.80;99.00;;;;;;5071688;28;20591;-72
2023/09/17 01:50:11;;;;;;;5.63;4.25;;;17.80;99.90;;;;;;5061217;28;20492;-72
2023/09/17 01:52:39;;;;;;;10.52;4.28;;;17.70;99.90;;;;;;5073646;28;20046;-73
2023/09/17 01:55:10;;;;;;;3.45;3.08;;;17.70;99.90;;;;;;5077617;28;20048;-72
2023/09/17 01:57:37;;;;;;;4.93;3.80;;;17.70;99.90;;;;;;5045754;28;20050;-72
2023/09/17 02:00:16;;;;;;;6.10;4.55;;;17.70;99.90;;;;;;5080235;28;20048;-71
2023/09/17 02:02:51;;;;;;;3.80;3.42;;;17.70;99.90;;;;;;5075788;28;20079;-72
2023/09/17 02:05:20;;;;;;;4.45;3.15;;;17.70;99.90;;;;;;5075258;28;20064;-71
2023/09/17 02:07:47;;;;;;;4.78;3.70;;;17.80;99.90;;;;;;5076810;28;20044;-72
2023/09/17 02:10:14;;;;;;;4.15;3.35;;;17.80;99.90;;;;;;5058393;28;20052;-72
2023/09/17 02:12:41;;;;;;;3.05;2.53;;;17.80;99.90;;;;;;5077491;28;20094;-72
2023/09/17 02:15:11;;;;;;;2.75;2.35;;;17.80;99.90;;;;;;5066114;28;20463;-71
2023/09/17 02:17:39;;;;;;;2.90;2.45;;;17.80;99.90;;;;;;5071646;28;20053;-71
2023/09/17 02:20:11;;;;;;;3.70;2.20;;;17.90;99.90;;;;;;5080620;28;20063;-71
2023/09/17 02:22:38;;;;;;;2.60;2.13;;;17.90;99.90;;;;;;5068469;28;20506;-71
2023/09/17 02:25:06;;;;;;;3.80;2.40;;;18.00;99.90;;;;;;5066320;28;20479;-71
2023/09/17 02:27:33;;;;;;;2.42;1.88;;;18.00;99.90;;;;;;5070276;28;20143;-71
2023/09/17 02:30:00;;;;;;;2.50;1.95;;;18.00;99.90;;;;;;5055462;28;20406;-72
2023/09/17 02:32:27;;;;;;;3.05;2.53;;;18.00;99.90;;;;;;5078238;28;20052;-71
2023/09/17 02:34:54;;;;;;;2.72;2.13;;;18.10;99.90;;;;;;5052859;28;20051;-72
2023/09/17 02:37:21;;;;;;;2.83;2.10;;;18.10;99.90;;;;;;5068874;28;20056;-71
2023/09/17 02:39:48;;;;;;;2.30;1.90;;;18.10;99.90;;;;;;5072731;28;20079;-72
2023/09/17 02:42:16;;;;;;;2.83;1.85;;;18.10;99.90;;;;;;5064397;28;20114;-72
2023/09/17 02:44:43;;;;;;;2.25;1.80;;;18.10;99.90;;;;;;5082405;28;20040;-71
2023/09/17 02:47:10;;;;;;;2.88;2.30;;;18.10;99.90;;;;;;5070019;28;20430;-71
2023/09/17 02:49:37;;;;;;;2.55;1.85;;;18.10;99.90;;;;;;5065276;28;20059;-71
2023/09/17 02:52:06;;;;;;;4.18;2.97;;;18.10;99.90;;;;;;5067234;28;20059;-71
2023/09/17 02:54:36;;;;;;;2.95;2.22;;;18.10;99.90;;;;;;5066591;28;20045;-72
2023/09/17 02:57:03;;;;;;;3.22;2.20;;;18.10;99.90;;;;;;5046744;28;20044;-71
2023/09/17 02:59:30;;;;;;;2.88;2.38;;;18.10;99.90;;;;;;5082358;28;20068;-71
2023/09/17 03:01:57;;;;;;;2.38;2.03;;;18.20;99.90;;;;;;5058272;28;20437;-71
2023/09/17 03:04:26;;;;;;;3.13;2.65;;;18.20;99.90;;;;;;5065490;28;20105;-72
2023/09/17 03:06:53;;;;;;;3.13;2.42;;;18.20;99.90;;;;;;5064722;28;20067;-73
2023/09/17 03:09:20;;;;;;;2.58;1.95;;;18.20;99.90;;;;;;5078126;28;20036;-73
2023/09/17 03:11:47;;;;;;;2.72;2.03;;;18.20;99.90;;;;;;5050209;28;20051;-73
2023/09/17 03:14:14;;;;;;;2.03;1.73;;;18.20;99.90;;;;;;5067365;28;20048;-71
2023/09/17 03:16:41;;;;;;;3.47;2.00;;;18.30;99.90;;;;;;5070525;28;20044;-71
2023/09/17 03:19:08;;;;;;;3.17;1.98;;;18.30;99.90;;;;;;5075680;28;20052;-71
2023/09/17 03:21:40;;;;;;;2.28;1.80;;;18.30;99.90;;;;;;5061804;28;20052;-72
2023/09/17 03:24:08;;;;;;;2.53;1.75;;;18.30;99.90;;;;;;5079468;28;20076;-71
2023/09/17 03:26:38;;;;;;;4.15;2.28;;;18.40;99.90;;;;;;5069059;28;20141;-71
2023/09/17 03:29:05;;;;;;;1.80;1.50;;;18.30;99.90;;;;;;5071277;28;20059;-71
2023/09/17 03:31:32;;;;;;;1.92;1.70;;;18.40;99.90;;;;;;5068526;28;20056;-72
2023/09/17 03:34:00;;;;;;;1.88;1.50;;;18.40;99.90;;;;;;5073065;28;20044;-71
2023/09/17 03:36:26;;;;;;;2.42;1.90;;;18.40;99.90;;;;;;5058025;28;20052;-72
2023/09/17 03:38:53;;;;;;;2.33;1.75;;;18.40;99.90;;;;;;5067665;28;20130;-71
2023/09/17 03:41:20;;;;;;;1.63;1.27;;;18.40;99.90;;;;;;5080390;28;20053;-72
2023/09/17 03:43:47;;;;;;;2.08;1.45;;;18.40;99.90;;;;;;5076520;28;20055;-71
2023/09/17 03:46:14;;;;;;;1.92;1.70;;;18.40;99.90;;;;;;5073132;28;20166;-72
2023/09/17 03:48:42;;;;;;;1.77;1.42;;;18.50;99.90;;;;;;5071508;28;20071;-71
2023/09/17 03:51:08;;;;;;;2.45;1.85;;;18.50;99.90;;;;;;5070259;28;20086;-71
2023/09/17 03:53:35;;;;;;;2.47;1.80;;;18.40;99.90;;;;;;5078054;28;20047;-72
2023/09/17 03:56:03;;;;;;;3.50;1.90;;;18.40;99.90;;;;;;5068950;28;20044;-72
2023/09/17 03:58:30;;;;;;;2.13;1.75;;;18.40;99.90;;;;;;5065956;28;20059;-71
2023/09/17 04:00:57;;;;;;;2.55;1.80;;;18.40;99.90;;;;;;5051328;28;20068;-71
2023/09/17 04:03:25;;;;;;;2.08;1.58;;;18.40;99.90;;;;;;5078935;28;20051;-72
2023/09/17 04:05:52;;;;;;;2.08;1.55;;;18.40;99.90;;;;;;5059804;28;20051;-71
2023/09/17 04:08:19;;;;;;;2.20;1.35;;;18.40;99.90;;;;;;5077383;28;20720;-71
2023/09/17 04:10:46;;;;;;;2.35;1.98;;;18.40;99.90;;;;;;5079812;28;20140;-71
2023/09/17 04:13:13;;;;;;;2.67;1.73;;;18.40;99.90;;;;;;5066928;28;20495;-71
2023/09/17 04:15:40;;;;;;;3.10;2.05;;;18.40;99.90;;;;;;5069538;28;20059;-71
2023/09/17 04:18:06;;;;;;;2.50;1.70;;;18.40;99.90;;;;;;5067934;28;20845;-71
2023/09/17 04:20:35;;;;;;;2.03;1.60;;;18.40;99.90;;;;;;5073497;28;20157;-71
2023/09/17 04:23:03;;;;;;;1.33;1.23;;;18.40;99.90;;;;;;5067999;28;20044;-71
2023/09/17 04:25:32;;;;;;;1.88;1.55;;;18.40;99.90;;;;;;5064465;28;20045;-71
2023/09/17 04:27:59;;;;;;;2.15;1.52;;;18.40;99.90;;;;;;5067242;28;20144;-71
2023/09/17 04:30:26;;;;;;;2.15;1.48;;;18.40;99.90;;;;;;5056702;28;20074;-71
2023/09/17 04:32:54;;;;;;;2.63;1.17;;;18.40;99.90;;;;;;5076317;28;20063;-72
2023/09/17 04:35:22;;;;;;;1.65;1.52;;;18.40;99.90;;;;;;5058351;28;20345;-71
2023/09/17 04:37:49;;;;;;;2.58;1.88;;;18.40;99.90;;;;;;5064427;28;20055;-72
2023/09/17 04:40:17;;;;;;;3.40;2.17;;;18.40;99.90;;;;;;5056985;28;20056;-71
2023/09/17 04:42:48;;;;;;;2.33;2.00;;;18.40;99.90;;;;;;5068089;28;20043;-72
2023/09/17 04:45:34;;;;;;;1.98;1.70;;;18.40;99.90;;;;;;5072128;28;20074;-71
2023/09/17 04:48:03;;;;;;;1.77;1.60;;;18.30;99.90;;;;;;5058836;28;20059;-71
2023/09/17 04:50:30;;;;;;;2.42;1.80;;;18.30;99.90;;;;;;5048723;28;20040;-72
2023/09/17 04:52:57;;;;;;;2.97;2.30;;;18.30;99.90;;;;;;5057747;28;20052;-71
2023/09/17 04:55:25;;;;;;;5.13;2.85;;;18.30;99.90;;;;;;5065112;28;20079;-71
2023/09/17 04:57:52;;;;;;;3.33;2.50;;;18.30;99.90;;;;;;5063421;28;20509;-71
2023/09/17 05:00:20;;;;;;;3.13;2.42;;;18.20;99.90;;;;;;5077398;28;20422;-72
2023/09/17 05:02:50;;;;;;;3.80;2.53;;;18.20;99.90;;;;;;5066844;28;20590;-72
2023/09/17 05:05:20;;;;;;;2.95;2.22;;;18.20;99.90;;;;;;5043960;28;20109;-71
2023/09/17 05:07:50;;;;;;;3.05;2.20;;;18.20;99.90;;;;;;5069618;28;20493;-71
2023/09/17 05:10:17;;;;;;;2.20;1.60;;;18.20;99.90;;;;;;5065079;28;20135;-72
2023/09/17 05:12:44;;;;;;;3.28;1.88;;;18.20;99.90;;;;;;5071529;28;20097;-72
2023/09/17 05:15:11;;;;;;;1.77;1.50;;;18.30;99.90;;;;;;5079339;28;20114;-71
2023/09/17 05:17:38;;;;;;;1.98;1.52;;;18.30;99.90;;;;;;5070545;28;20048;-71
2023/09/17 05:20:06;;;;;;;3.45;1.88;;;18.30;99.90;;;;;;5082960;28;20134;-72
2023/09/17 05:22:34;;;;;;;2.33;1.38;;;18.30;99.90;;;;;;5069224;28;20564;-72
2023/09/17 05:25:03;;;;;;;1.67;1.23;;;18.30;99.90;;;;;;5079254;28;20435;-72
2023/09/17 05:27:30;;;;;;;2.72;1.55;;;18.30;99.90;;;;;;5068025;28;20071;-72
2023/09/17 05:29:59;;;;;;;1.58;1.27;;;18.30;99.90;;;;;;5081996;28;20043;-72
2023/09/17 05:32:27;;;;;;;2.30;1.63;;;18.30;99.90;;;;;;5050969;28;20457;-72
2023/09/17 05:34:56;;;;;;;2.08;1.10;;;18.20;99.90;;;;;;5079340;28;20048;-72
2023/09/17 05:37:24;;;;;;;2.63;1.60;;;18.30;99.90;;;;;;5063377;28;20110;-73
2023/09/17 05:39:51;;;;;;;1.73;1.52;;;18.30;99.90;;;;;;5067774;28;20049;-72
2023/09/17 05:42:18;;;;;;;2.20;1.42;;;18.30;99.90;;;;;;5074859;28;20055;-73
2023/09/17 05:44:45;;;;;;;1.33;1.08;;;18.30;99.90;;;;;;5066823;28;20415;-72
2023/09/17 05:47:11;;;;;;;2.78;1.60;;;18.30;99.90;;;;;;5067356;28;20052;-72
2023/09/17 05:49:38;;;;;;;1.38;1.20;;;18.30;99.90;;;;;;5083506;28;20048;-72
2023/09/17 05:52:05;;;;;;;2.15;1.90;;;18.30;99.90;;;;;;5072739;28;20396;-72
2023/09/17 05:54:32;;;;;;;3.28;1.88;;;18.30;99.90;;;;;;5080630;28;20668;-73
2023/09/17 05:56:59;;;;;;;1.85;1.67;;;18.20;99.90;;;;;;5070380;28;20040;-72
2023/09/17 05:59:26;;;;;;;2.10;1.77;;;18.20;99.90;;;;;;5081126;28;20041;-72
2023/09/17 06:01:55;;;;;;;1.88;1.50;;;18.20;99.90;;;;;;5056671;28;20559;-72
2023/09/17 06:04:22;;;;;;;1.23;1.13;;;18.20;99.90;;;;;;5079995;28;20051;-72
2023/09/17 06:06:49;;;;;;;2.53;2.10;;;18.20;99.90;;;;;;5069212;28;20064;-72
2023/09/17 06:09:15;;;;;;;2.17;1.92;;;18.20;99.90;;;;;;5083490;28;20044;-72
2023/09/17 06:11:42;;;;;;;3.20;1.98;;;18.20;99.90;;;;;;5082504;28;20128;-72
2023/09/17 06:14:09;;;;;;;2.20;1.88;;;18.10;99.90;;;;;;5052568;28;20059;-72
2023/09/17 06:16:36;;;;;;;2.20;1.80;;;18.10;99.90;;;;;;5072953;28;20127;-72
2023/09/17 06:19:22;;;;;;;2.17;1.73;;;18.20;99.90;;;;;;5073228;28;20051;-72
2023/09/17 06:21:49;;;;;;;1.80;1.27;;;18.20;99.90;;;;;;5072219;28;20135;-72
2023/09/17 06:24:16;;;;;;;1.50;1.33;;;18.20;99.90;;;;;;5081181;28;20059;-71
2023/09/17 06:26:43;;;;;;;1.55;1.30;;;18.30;99.90;;;;;;5076540;28;20048;-71
2023/09/17 06:29:10;;;;;;;1.45;1.23;;;18.30;99.90;;;;;;5073606;28;20036;-71
2023/09/17 06:31:37;;;;;;;1.45;1.30;;;18.30;99.90;;;;;;5074548;28;20062;-72
2023/09/17 06:34:05;;;;;;;1.60;1.50;;;18.30;99.90;;;;;;5099940;28;20063;-73
2023/09/17 06:36:32;;;;;;;1.63;1.20;;;18.30;99.90;;;;;;5075835;28;20067;-72
2023/09/17 06:38:59;;;;;;;2.15;1.50;;;18.30;99.90;;;;;;5074695;28;20589;-71
2023/09/17 06:41:25;;;;;;;1.83;1.45;;;18.30;99.90;;;;;;5066152;28;20051;-71
2023/09/17 06:43:54;;;;;;;2.50;1.88;;;18.40;99.90;;;;;;5070803;28;20535;-71
2023/09/17 06:46:23;;;;;;;2.65;1.88;;;18.30;99.90;;;;;;5075829;28;20730;-72
2023/09/17 06:48:51;;;;;;;2.25;1.98;;;18.40;99.90;;;;;;5071471;28;20098;-72
2023/09/17 06:51:18;;;;;;;1.83;1.60;;;18.50;99.90;;;;;;5074232;28;20051;-72
2023/09/17 06:53:45;;;;;;;1.67;1.35;;;18.50;99.90;;;;;;5079697;28;20047;-72
2023/09/17 06:56:12;;;;;;;2.03;1.10;;;18.50;99.90;;;;;;5071148;28;20054;-72
2023/09/17 06:58:39;;;;;;;1.70;1.30;;;18.70;99.90;;;;;;5094796;27;20048;-72
2023/09/17 07:01:07;;;;;;;1.45;1.15;;;18.70;95.10;;;;;;5074812;28;20048;-72
2023/09/17 07:03:34;;;;;;;1.70;1.27;;;18.80;90.20;;;;;;5080090;28;20449;-72
2023/09/17 07:06:01;;;;;;;1.55;1.10;;;18.80;90.00;;;;;;5073623;28;20059;-72
2023/09/17 07:08:28;;;;;;;1.65;1.33;;;18.90;90.20;;;;;;5052548;28;20051;-72
2023/09/17 07:10:55;;;;;;;1.40;1.25;;;19.00;76.90;;;;;;5074458;28;20524;-72
2023/09/17 07:13:22;;;;;;;1.30;1.08;;;19.00;65.30;;;;;;5076783;28;20075;-72
2023/09/17 07:15:49;;;;;;;2.10;1.58;;;19.20;59.70;;;;;;5077781;28;20046;-72
2023/09/17 07:18:15;;;;;;;1.58;1.27;;;19.20;48.10;;;;;;5074068;28;20089;-72
2023/09/17 07:20:43;;;;;;;1.80;1.58;;;19.30;55.80;;;;;;5077086;28;20046;-71
2023/09/17 07:23:10;;;;;;;2.35;1.48;;;19.40;35.80;;;;;;5072345;28;20044;-71
2023/09/17 07:25:37;;;;;;;1.75;1.60;;;19.40;34.40;;;;;;5073447;28;20121;-71
2023/09/17 07:28:07;;;;;;;1.20;1.02;;;19.50;26.80;;;;;;5071832;28;20396;-73
2023/09/17 07:30:34;;;;;;;1.67;1.15;;;19.60;19.50;;;;;;5058622;28;20046;-72
2023/09/17 07:33:03;;;;;;;1.70;1.10;;;19.70;3.90;;;;;;5071007;28;20054;-72
2023/09/17 07:35:34;;;;;;;2.42;1.90;;;19.60;8.10;;;;;;5073295;28;20056;-72
2023/09/17 07:38:01;;;;;;;2.10;1.60;;;19.60;17.60;;;;;;5071222;28;20048;-73
2023/09/17 07:40:33;;;;;;;2.40;1.60;;;19.70;23.70;;;;;;5075420;28;20056;-72
2023/09/17 07:43:01;;;;;;;2.00;1.80;;;19.70;12.30;;;;;;5072619;28;20056;-72
2023/09/17 07:45:28;;;;;;;2.03;1.30;;;19.70;20.00;;;;;;5075090;28;20332;-72
2023/09/17 07:47:55;;;;;;;2.47;1.90;;;19.90;3.70;;;;;;5077960;28;20047;-73
2023/09/17 07:50:22;;;;;;;2.08;1.83;;;19.90;1.00;;;;;;5065806;28;20048;-73
2023/09/17 07:52:49;;;;;;;2.63;1.80;;;20.00;1.00;;;;;;5065004;28;20060;-73
2023/09/17 07:55:18;;;;;;;2.25;1.70;;;20.00;1.00;;;;;;5067454;28;20044;-73
2023/09/17 07:57:48;;;;;;;2.22;2.00;;;20.10;1.00;;;;;;5073259;28;20145;-73
2023/09/17 08:00:16;;;;;;;2.45;1.88;;;20.10;1.00;;;;;;5056162;28;20063;-73
2023/09/17 08:02:44;;;;;;;2.05;1.83;;;20.10;1.00;;;;;;5066250;28;20052;-74
2023/09/17 08:05:11;;;;;;;2.22;1.98;;;20.10;1.00;;;;;;5073667;28;20044;-73
2023/09/17 08:07:40;;;;;;;1.90;1.60;;;20.20;1.00;;;;;;5063183;28;20052;-72
2023/09/17 08:10:08;;;;;;;1.75;1.55;;;20.30;1.00;;;;;;5076324;28;20067;-73
2023/09/17 08:12:35;;;;;;;2.35;1.60;;;20.40;1.00;;;;;;5078531;28;20048;-73
2023/09/17 08:15:01;;;;;;;1.70;1.52;;;20.50;1.00;;;;;;5075442;28;22044;-73
2023/09/17 08:17:28;;;;;;;2.15;1.95;;;20.60;1.00;;;;;;5046100;28;20052;-73
2023/09/17 08:19:58;;;;;;;3.10;2.10;;;20.60;1.00;;;;;;5074214;28;20132;-73
2023/09/17 08:22:27;;;;;;;2.42;1.73;;;20.60;1.00;;;;;;5071271;28;20142;-74
2023/09/17 08:24:54;;;;;;;2.97;1.85;;;20.80;1.00;;;;;;5079413;28;20112;-73
2023/09/17 08:27:21;;;;;;;2.78;1.77;;;21.00;1.00;;;;;;5080330;28;20052;-74
2023/09/17 08:29:48;;;;;;;1.85;1.45;;;21.00;1.00;;;;;;5078265;28;20437;-73
2023/09/17 08:32:15;;;;;;;1.70;1.40;;;21.20;1.00;;;;;;5076963;28;20935;-73
2023/09/17 08:34:42;;;;;;;2.63;1.60;;;21.30;1.00;;;;;;5077462;28;20566;-74
2023/09/17 08:37:10;;;;;;;1.80;1.40;;;21.40;1.00;;;;;;5074090;28;20056;-73
2023/09/17 08:39:37;;;;;;;1.85;1.52;;;21.50;1.00;;;;;;5073949;28;20036;-74
2023/09/17 08:42:04;;;;;;;2.40;1.65;;;21.40;1.00;;;;;;5073202;28;20055;-73
2023/09/17 08:44:35;;;;;;;1.83;1.50;;;21.30;1.00;;;;;;5072721;28;20551;-72
2023/09/17 08:47:02;;;;;;;1.20;1.10;;;21.40;1.00;;;;;;5079969;28;20036;-74
2023/09/17 08:49:29;;;;;;;1.23;0.90;;;21.50;1.00;;;;;;5082472;28;20517;-73
2023/09/17 08:51:59;;;;;;;1.73;1.45;;;21.60;1.00;;;;;;5081279;28;20178;-74
2023/09/17 08:54:33;;;;;;;2.55;2.00;;;21.60;99.90;;;;;;5063157;28;20044;-72
2023/09/17 08:57:00;;;;;;;2.78;1.83;;;21.50;99.90;;;;;;5072919;28;20399;-71
2023/09/17 08:59:29;;;;;;;2.78;1.80;;;21.40;99.90;;;;;;5055120;28;20048;-72
2023/09/17 09:01:57;;;;;;;2.20;1.70;;;21.40;99.90;;;;;;5075109;28;20048;-72
2023/09/17 09:04:24;;;;;;;2.03;1.52;;;21.30;99.90;;;;;;5074176;28;20058;-71
2023/09/17 09:06:51;;;;;;;2.63;1.85;;;21.20;99.90;;;;;;5053794;28;20113;-72
2023/09/17 09:09:19;;;;;;;2.75;1.80;;;21.20;99.90;;;;;;5077641;28;20419;-72
2023/09/17 09:11:47;;;;;;;2.60;1.65;;;21.20;99.90;;;;;;5061262;28;20353;-72
2023/09/17 09:14:14;;;;;;;1.98;1.65;;;21.20;99.90;;;;;;5080977;28;20060;-73
2023/09/17 09:16:41;;;;;;;2.20;1.90;;;21.30;99.90;;;;;;5058561;28;20509;-73
2023/09/17 09:19:09;;;;;;;2.78;2.20;;;21.20;99.90;;;;;;5073724;28;20052;-72
2023/09/17 09:21:35;;;;;;;2.63;1.75;;;21.30;99.90;;;;;;5060912;28;20048;-74
2023/09/17 09:24:02;;;;;;;2.40;1.70;;;21.30;99.90;;;;;;5078823;28;20089;-73
2023/09/17 09:26:37;;;;;;;2.40;1.95;;;21.20;99.90;;;;;;5084321;28;20043;-73
2023/09/17 09:29:07;;;;;;;2.13;1.70;;;21.30;99.90;;;;;;5083783;28;20062;-73
2023/09/17 09:31:34;;;;;;;1.98;1.52;;;21.30;99.90;;;;;;5081793;28;20052;-73
2023/09/17 09:34:01;;;;;;;1.70;1.48;;;21.50;99.90;;;;;;5063007;28;20487;-73
2023/09/17 09:36:28;;;;;;;2.33;1.15;;;21.70;99.90;;;;;;5064241;28;20067;-73
2023/09/17 09:38:56;;;;;;;1.80;1.50;;;21.80;99.90;;;;;;5083541;28;20106;-73
2023/09/17 09:41:26;;;;;;;1.92;1.50;;;22.00;99.90;;;;;;5083956;28;20079;-73
2023/09/17 09:43:56;;;;;;;1.65;1.35;;;22.00;99.90;;;;;;5068431;28;20044;-73
2023/09/17 09:46:28;;;;;;;1.40;1.15;;;22.00;99.90;;;;;;5094956;28;20056;-73
2023/09/17 09:49:01;;;;;;;1.48;1.20;;;22.00;99.90;;;;;;5083114;28;20101;-73
2023/09/17 09:51:32;;;;;;;2.33;1.50;;;22.00;99.90;;;;;;5049649;28;20060;-72
2023/09/17 09:53:58;;;;;;;2.05;1.48;;;21.80;99.90;;;;;;5084088;28;20105;-72
2023/09/17 09:56:29;;;;;;;1.48;1.25;;;21.70;99.90;;;;;;5082054;28;20060;-73
2023/09/17 09:58:56;;;;;;;2.13;1.38;;;21.80;99.90;;;;;;5083033;28;20135;-73
2023/09/17 10:01:23;;;;;;;1.40;1.30;;;22.00;99.90;;;;;;5087026;28;20048;-73
2023/09/17 10:03:50;;;;;;;2.20;1.55;;;22.10;99.90;;;;;;5085943;28;20124;-73
2023/09/17 10:06:18;;;;;;;1.50;1.10;;;22.20;63.90;;;;;;5069269;28;20261;-73
2023/09/17 10:08:46;;;;;;;2.17;1.50;;;22.20;4.60;;;;;;5070595;28;20055;-73
2023/09/17 10:11:13;;;;;;;2.17;1.67;;;22.20;1.00;;;;;;5086045;28;20063;-73
2023/09/17 10:13:40;;;;;;;1.75;1.42;;;22.20;19.40;;;;;;5086954;28;20048;-73
2023/09/17 10:16:07;;;;;;;1.85;1.40;;;22.20;9.70;;;;;;5086934;28;20123;-73
2023/09/17 10:18:36;;;;;;;2.05;1.65;;;22.40;1.00;;;;;;5087040;28;20063;-73
2023/09/17 10:21:03;;;;;;;2.22;2.03;;;22.50;1.00;;;;;;5086470;28;20501;-73
2023/09/17 10:23:30;;;;;;;2.40;1.65;;;22.50;99.90;;;;;;5083051;28;20051;-73
2023/09/17 10:25:58;;;;;;;2.80;2.10;;;22.60;99.90;;;;;;5051191;28;20057;-73
2023/09/17 10:28:25;;;;;;;2.38;1.92;;;22.70;99.90;;;;;;5071632;28;20051;-74
2023/09/17 10:30:52;;;;;;;2.15;1.80;;;22.90;99.90;;;;;;5073636;28;20044;-74
2023/09/17 10:33:19;;;;;;;3.78;2.63;;;22.90;99.90;;;;;;5061236;28;20075;-73
2023/09/17 10:35:46;;;;;;;2.97;2.67;;;22.90;1.00;;;;;;5060039;28;21509;-73
2023/09/17 10:38:13;;;;;;;2.40;2.15;;;22.70;99.90;;;;;;5086157;28;20040;-73
2023/09/17 10:40:40;;;;;;;3.65;2.45;;;22.60;1.00;;;;;;5060404;28;20139;-72
2023/09/17 10:43:07;;;;;;;2.72;1.92;;;22.40;99.90;;;;;;5085609;28;20083;-73
2023/09/17 10:45:34;;;;;;;2.75;2.17;;;22.50;99.90;;;;;;5076049;28;20051;-74
2023/09/17 10:48:02;;;;;;;2.08;1.60;;;22.50;99.90;;;;;;5073034;28;20048;-74
2023/09/17 10:50:30;;;;;;;1.52;1.27;;;22.80;99.90;;;;;;5079835;28;20040;-74
2023/09/17 10:52:56;;;;;;;1.60;1.17;;;22.90;1.00;;;;;;5080723;28;20039;-75
2023/09/17 10:55:23;;;;;;;2.08;1.65;;;22.80;99.90;;;;;;5068884;28;20059;-74
2023/09/17 10:58:04;;;;;;;1.77;1.50;;;22.70;99.90;;;;;;5073273;28;20040;-74
2023/09/17 11:00:33;;;;;;;1.70;1.50;;;22.60;99.90;;;;;;5058617;28;20059;-74
2023/09/17 11:03:01;;;;;;;2.28;1.65;;;22.50;1.00;;;;;;5069768;28;20139;-74
2023/09/17 11:05:29;;;;;;;1.60;1.40;;;22.30;1.00;;;;;;5064956;28;20051;-76
2023/09/17 11:07:58;;;;;;;1.73;1.35;;;22.20;1.00;;;;;;5069443;28;20397;-74
2023/09/17 11:10:25;;;;;;;1.63;1.52;;;22.10;1.00;;;;;;5068364;28;20067;-74
2023/09/17 11:12:58;;;;;;;2.35;2.03;;;22.00;1.00;;;;;;5076251;28;20245;-73
2023/09/17 11:15:25;;;;;;;2.75;2.22;;;21.70;99.90;;;;;;5065185;28;20363;-73
2023/09/17 11:17:58;;;;;;;2.10;1.65;;;21.60;99.90;;;;;;5083881;28;20097;-73
2023/09/17 11:20:25;;;;;;;2.47;1.95;;;21.70;1.00;;;;;;5068240;28;20085;-73
2023/09/17 11:22:52;;;;;;;1.80;1.50;;;21.70;1.00;;;;;;5061705;28;20052;-74
2023/09/17 11:25:33;;;;;;;1.92;1.70;;;21.80;99.90;;;;;;5061294;28;20051;-73
2023/09/17 11:28:15;;;;;;;2.15;1.95;;;21.90;99.90;;;;;;5080279;28;20040;-73
2023/09/17 11:30:57;;;;;;;2.92;2.10;;;21.70;99.90;;;;;;5079446;28;20052;-73
2023/09/17 11:33:25;;;;;;;1.98;1.75;;;21.60;99.90;;;;;;5078598;28;20587;-73
2023/09/17 11:35:53;;;;;;;2.22;1.70;;;21.60;1.00;;;;;;5052735;28;20053;-73
2023/09/17 11:38:24;;;;;;;2.15;1.63;;;21.60;1.00;;;;;;5060394;28;20147;-73
2023/09/17 11:41:28;;;;;;;2.25;1.70;;;21.70;1.00;;;;;;5076423;28;20108;-74
2023/09/17 11:43:54;;;;;;;2.72;1.83;;;21.80;1.00;;;;;;5044607;28;20059;-72
2023/09/17 11:46:22;;;;;;;1.95;1.73;;;21.80;2.10;;;;;;5073285;28;20048;-72
2023/09/17 11:48:49;;;;;;;1.73;1.60;;;21.80;1.00;;;;;;5076357;28;20086;-73
2023/09/17 11:51:26;;;;;;;2.50;1.77;;;21.70;1.00;;;;;;5073405;28;20047;-72
2023/09/17 11:53:56;;;;;;;2.78;1.90;;;21.70;1.00;;;;;;5070189;28;20459;-73
2023/09/17 11:56:25;;;;;;;2.00;1.80;;;21.60;1.00;;;;;;5091601;28;20051;-73
2023/09/17 11:59:09;;;;;;;3.08;2.35;;;21.40;99.90;;;;;;5072362;28;20151;-73
2023/09/17 12:01:43;;;;;;;2.10;1.63;;;21.30;99.90;;;;;;5067201;28;20071;-73
2023/09/17 12:04:10;;;;;;;2.58;2.10;;;21.20;1.00;;;;;;5067591;28;21157;-72
2023/09/17 12:06:39;;;;;;;2.35;1.73;;;21.10;99.90;;;;;;5062578;28;20771;-73
2023/09/17 12:09:15;;;;;;;3.33;2.38;;;20.90;99.90;;;;;;5073482;28;20066;-72
2023/09/17 12:11:44;;;;;;;2.15;1.83;;;20.70;99.90;;;;;;5063280;28;20044;-72
2023/09/17 12:14:14;;;;;;;3.05;2.42;;;20.70;1.00;;;;;;5039196;28;20055;-73
2023/09/17 12:16:41;;;;;;;2.50;2.30;;;20.70;99.90;;;;;;5051178;28;20055;-73
2023/09/17 12:19:08;;;;;;;3.88;2.95;;;20.50;1.00;;;;;;5068156;28;20157;-72
2023/09/17 12:21:49;;;;;;;3.67;2.50;;;20.40;1.00;;;;;;5080741;28;20052;-73
2023/09/17 12:24:20;;;;;;;4.05;3.13;;;20.30;1.00;;;;;;5055014;28;20831;-77
2023/09/17 12:27:08;;;;;;;3.90;2.95;;;20.10;38.40;;;;;;5069365;28;20048;-79
2023/09/17 12:29:36;;;;;;;2.83;2.40;;;20.00;43.40;;;;;;5071073;28;20058;-79
2023/09/17 12:32:04;;;;;;;2.65;2.13;;;20.00;99.90;;;;;;5050423;28;20044;-79
2023/09/17 12:34:33;;;;;;;3.20;2.08;;;20.00;99.90;;;;;;5050480;28;20044;-79
2023/09/17 12:37:02;;;;;;;3.38;2.25;;;19.90;99.90;;;;;;5072144;28;20137;-80
2023/09/17 12:39:29;;;;;;;2.47;2.05;;;20.00;99.90;;;;;;5048543;28;20675;-79
2023/09/17 12:41:56;;;;;;;1.65;1.52;;;20.00;99.90;;;;;;5046071;28;20527;-78
2023/09/17 12:44:26;;;;;;;2.17;1.80;;;20.10;99.90;;;;;;5065335;28;20052;-77
2023/09/17 12:46:52;;;;;;;1.80;1.50;;;20.20;99.90;;;;;;5047377;28;20056;-78
2023/09/17 12:49:21;;;;;;;1.52;1.40;;;20.30;99.90;;;;;;5048980;28;20871;-77
2023/09/17 12:51:51;;;;;;;1.75;1.30;;;20.40;99.90;;;;;;5052997;28;20398;-77
2023/09/17 12:54:19;;;;;;;1.83;1.52;;;20.40;99.90;;;;;;5067848;28;20102;-77
2023/09/17 12:56:46;;;;;;;2.38;1.60;;;20.40;99.90;;;;;;5062283;28;20055;-77